MSC Krittika — H3RV — position and weather

sailwx.info

Track history (hours):
 
Tides and Currents Weather Stations Pressure Air Temp Water Temp Dewpoint Dewpoint Depression Visibility Wind Speed Wind Dir Waves Ship Positions

MSC Krittika

Last reported at 2014-Dec-11 13:33 UTC. Time now 2014-Dec-19 14:16 UTC.
Position S 26°42' E 153°15'.
Warning: this ship's position is 8 days out of date.

Length 202 m; draft 11.9 m.

Type: Ship (hazmat cat A). MMSI: 354725000.

Date/timePositionNaut miles runAvg speedWind from/ knotsBaromVisibWave heightAir tempDewpointWater temp
2014-Dec-11 13:33S 26°42' E 153°15'1110.9
2014-Dec-11 12:33S 26°52' E 153°09'1615.7
2014-Dec-11 11:34S 27°05' E 153°19'1313.3
2014-Dec-11 10:34S 27°17' E 153°14'5 5.0
2014-Dec-11 09:31S 27°22' E 153°11'0 0.0
2014-Dec-11 08:31S 27°22' E 153°11'0 0.0
2014-Dec-11 07:31S 27°22' E 153°11'0 0.0
2014-Dec-11 06:25S 27°22' E 153°11'0 0.0
2014-Dec-11 05:13S 27°22' E 153°11'0 0.0
2014-Dec-11 04:16S 27°22' E 153°11'0 0.0
2014-Dec-11 03:22S 27°22' E 153°11'0 0.0
2014-Dec-11 02:31S 27°22' E 153°11'0 0.0
2014-Dec-11 01:31S 27°22' E 153°11'0 0.0
2014-Dec-11 00:31S 27°22' E 153°11'0 0.0
2014-Dec-10 23:31S 27°22' E 153°11'0 0.0
2014-Dec-10 22:31S 27°22' E 153°11'0 0.0
2014-Dec-10 21:28S 27°22' E 153°11'0 0.0
2014-Dec-10 20:31S 27°22' E 153°11'2 1.8
2014-Dec-10 19:33S 27°20' E 153°11'1413.9
2014-Dec-10 18:34S 27°09' E 153°21'1515.2
2014-Dec-10 17:33S 26°56' E 153°12'1312.6
2014-Dec-10 16:34S 26°44' E 153°12'1211.8
2014-Dec-10 15:33S 26°42' E 153°25'3 2.6
2014-Dec-10 14:33S 26°40' E 153°26'34 6.8
2014-Dec-10 09:33S 26°57' E 153°59'1715.9
2014-Dec-10 08:31S 27°04' E 154°16'  
2014-Dec-07 06:29S 36°15' E 174°59'1213.2
2014-Dec-07 05:33S 36°27' E 174°59'1212.4
2014-Dec-07 04:33S 36°39' E 174°55'1110.5
2014-Dec-07 03:33S 36°49' E 174°50'3 2.8
2014-Dec-07 02:33S 36°51' E 174°47'0 0.0
2014-Dec-07 01:32S 36°51' E 174°47'0 0.0
2014-Dec-07 00:32S 36°51' E 174°47'0 0.0
2014-Dec-06 23:32S 36°51' E 174°47'0 0.0
2014-Dec-06 22:33S 36°51' E 174°47'0 0.0
2014-Dec-06 21:33S 36°51' E 174°47'0 0.0
2014-Dec-06 20:33S 36°51' E 174°47'0 0.0
2014-Dec-06 19:32S 36°51' E 174°47'0 0.0
2014-Dec-06 18:32S 36°51' E 174°47'0 0.0
2014-Dec-06 17:32S 36°51' E 174°47'0 0.0
2014-Dec-06 16:32S 36°51' E 174°47'1 1.2
2014-Dec-06 15:33S 36°50' E 174°48'7 7.0
2014-Dec-06 14:34S 36°44' E 174°51'0 0.1
2014-Dec-06 13:33S 36°43' E 174°51'0 0.0
2014-Dec-06 12:33S 36°43' E 174°51'0 0.0
2014-Dec-06 11:33S 36°43' E 174°51'0 0.0
2014-Dec-06 10:33S 36°43' E 174°51'0 0.0
2014-Dec-06 09:33S 36°43' E 174°51'4 3.6
2014-Dec-06 08:34S 36°41' E 174°54'1616.1
2014-Dec-06 07:34S 36°29' E 175°07'  
Track history (hours):
 
Tides and Currents Weather Stations Pressure Air Temp Water Temp Dewpoint Dewpoint Depression Visibility Wind Speed Wind Dir Waves Ship Positions

MSC Krittika

Last reported at 2014-Dec-11 13:33 UTC. Time now 2014-Dec-19 14:16 UTC.
Position S 26°42' E 153°15'.
Warning: this ship's position is 8 days out of date.

Length 202 m; draft 11.9 m.

Type: Ship (hazmat cat A). MMSI: 354725000.

Date/timePositionNaut miles runAvg speedWind from/ knotsBaromVisibWave heightAir tempDewpointWater temp
2014-Dec-11 13:33S 26°42' E 153°15'1110.9
2014-Dec-11 12:33S 26°52' E 153°09'1615.7
2014-Dec-11 11:34S 27°05' E 153°19'1313.3
2014-Dec-11 10:34S 27°17' E 153°14'5 5.0
2014-Dec-11 09:31S 27°22' E 153°11'0 0.0
2014-Dec-11 08:31S 27°22' E 153°11'0 0.0
2014-Dec-11 07:31S 27°22' E 153°11'0 0.0
2014-Dec-11 06:25S 27°22' E 153°11'0 0.0
2014-Dec-11 05:13S 27°22' E 153°11'0 0.0
2014-Dec-11 04:16S 27°22' E 153°11'0 0.0
2014-Dec-11 03:22S 27°22' E 153°11'0 0.0
2014-Dec-11 02:31S 27°22' E 153°11'0 0.0
2014-Dec-11 01:31S 27°22' E 153°11'0 0.0
2014-Dec-11 00:31S 27°22' E 153°11'0 0.0
2014-Dec-10 23:31S 27°22' E 153°11'0 0.0
2014-Dec-10 22:31S 27°22' E 153°11'0 0.0
2014-Dec-10 21:28S 27°22' E 153°11'0 0.0
2014-Dec-10 20:31S 27°22' E 153°11'2 1.8
2014-Dec-10 19:33S 27°20' E 153°11'1413.9
2014-Dec-10 18:34S 27°09' E 153°21'1515.2
2014-Dec-10 17:33S 26°56' E 153°12'1312.6
2014-Dec-10 16:34S 26°44' E 153°12'1211.8
2014-Dec-10 15:33S 26°42' E 153°25'3 2.6
2014-Dec-10 14:33S 26°40' E 153°26'34 6.8
2014-Dec-10 09:33S 26°57' E 153°59'1715.9
2014-Dec-10 08:31S 27°04' E 154°16'  
2014-Dec-07 06:29S 36°15' E 174°59'1213.2
2014-Dec-07 05:33S 36°27' E 174°59'1212.4
2014-Dec-07 04:33S 36°39' E 174°55'1110.5
2014-Dec-07 03:33S 36°49' E 174°50'3 2.8
2014-Dec-07 02:33S 36°51' E 174°47'0 0.0
2014-Dec-07 01:32S 36°51' E 174°47'0 0.0
2014-Dec-07 00:32S 36°51' E 174°47'0 0.0
2014-Dec-06 23:32S 36°51' E 174°47'0 0.0
2014-Dec-06 22:33S 36°51' E 174°47'0 0.0
2014-Dec-06 21:33S 36°51' E 174°47'0 0.0
2014-Dec-06 20:33S 36°51' E 174°47'0 0.0
2014-Dec-06 19:32S 36°51' E 174°47'0 0.0
2014-Dec-06 18:32S 36°51' E 174°47'0 0.0
2014-Dec-06 17:32S 36°51' E 174°47'0 0.0
2014-Dec-06 16:32S 36°51' E 174°47'1 1.2
2014-Dec-06 15:33S 36°50' E 174°48'7 7.0
2014-Dec-06 14:34S 36°44' E 174°51'0 0.1
2014-Dec-06 13:33S 36°43' E 174°51'0 0.0
2014-Dec-06 12:33S 36°43' E 174°51'0 0.0
2014-Dec-06 11:33S 36°43' E 174°51'0 0.0
2014-Dec-06 10:33S 36°43' E 174°51'0 0.0
2014-Dec-06 09:33S 36°43' E 174°51'4 3.6
2014-Dec-06 08:34S 36°41' E 174°54'1616.1
2014-Dec-06 07:34S 36°29' E 175°07'  

Dump ship's entire track history